Time,TemperatureF,DewpointF,PressureIn,WindDirection,WindDirectionDegrees,WindSpeedMPH,WindSpeedGustMPH,Humidity,HourlyPrecipIn,Conditions,Clouds,dailyrainin,SoftwareType,DateUTC
2013-04-29 00:03:00,75.0,-99.9,30.02,ESE,103,3.0,6.0,-999,-99.99,,,-99.99,,2013-04-29 04:03:00,
2013-04-29 00:13:00,75.0,-99.9,30.02,NNW,344,1.0,5.0,-999,-99.99,,,-99.99,,2013-04-29 04:13:00,
2013-04-29 00:23:00,75.0,-99.9,30.02,ENE,63,3.0,5.0,-999,-99.99,,,-99.99,,2013-04-29 04:23:00,
2013-04-29 00:33:00,75.0,-99.9,30.02,East,79,4.0,6.0,-999,-99.99,,,-99.99,,2013-04-29 04:33:00,
2013-04-29 00:43:00,75.0,-99.9,30.02,East,94,3.0,6.0,-999,-99.99,,,-99.99,,2013-04-29 04:43:00,
2013-04-29 00:52:00,75.0,-99.9,30.02,ENE,74,4.0,6.0,-999,-99.99,,,-99.99,,2013-04-29 04:52:00,
2013-04-29 01:02:00,75.0,-99.9,30.02,East,90,7.0,9.0,-999,-99.99,,,-99.99,,2013-04-29 05:02:00,
2013-04-29 01:12:00,75.0,-99.9,30.02,East,90,6.0,9.0,-999,-99.99,,,-99.99,,2013-04-29 05:12:00,
2013-04-29 01:22:00,75.0,-99.9,30.01,East,92,6.0,8.0,-999,-99.99,,,-99.99,,2013-04-29 05:22:00,
2013-04-29 01:32:00,75.0,-99.9,30.01,East,90,6.0,9.0,-999,-99.99,,,-99.99,,2013-04-29 05:32:00,
2013-04-29 01:42:00,75.0,-99.9,30.01,ESE,107,6.0,7.0,-999,-99.99,,,-99.99,,2013-04-29 05:42:00,
2013-04-29 01:52:00,75.0,-99.9,30.01,SE,134,9.0,12.0,-999,-99.99,,,-99.99,,2013-04-29 05:52:00,
2013-04-29 02:02:00,74.0,-99.9,30.01,SE,126,6.0,11.0,-999,-99.99,,,-99.99,,2013-04-29 06:02:00,
2013-04-29 02:12:00,74.0,-99.9,30.01,ESE,121,7.0,11.0,-999,-99.99,,,-99.99,,2013-04-29 06:12:00,
2013-04-29 02:22:00,74.0,-99.9,30.00,ESE,120,7.0,14.0,-999,-99.99,,,-99.99,,2013-04-29 06:22:00,
2013-04-29 02:32:00,74.0,-99.9,30.00,SE,132,7.0,13.0,-999,-99.99,,,-99.99,,2013-04-29 06:32:00,
2013-04-29 02:42:00,74.0,-99.9,30.00,ESE,121,9.0,13.0,-999,-99.99,,,-99.99,,2013-04-29 06:42:00,
2013-04-29 02:52:00,74.0,-99.9,30.00,SE,131,8.0,11.0,-999,-99.99,,,-99.99,,2013-04-29 06:52:00,
2013-04-29 03:02:00,74.0,-99.9,30.00,SSE,153,10.0,14.0,-999,-99.99,,,-99.99,,2013-04-29 07:02:00,
2013-04-29 03:11:00,74.0,-99.9,30.00,SSE,148,9.0,13.0,-999,-99.99,,,-99.99,,2013-04-29 07:11:00,
2013-04-29 03:22:00,74.0,-99.9,29.99,SSE,147,9.0,13.0,-999,-99.99,,,-99.99,,2013-04-29 07:22:00,
2013-04-29 03:32:00,73.0,-99.9,29.99,SSE,166,10.0,13.0,-999,-99.99,,,-99.99,,2013-04-29 07:32:00,
2013-04-29 03:42:00,73.0,-99.9,29.99,SSE,163,11.0,14.0,-999,-99.99,,,-99.99,,2013-04-29 07:42:00,
2013-04-29 03:52:00,73.0,-99.9,29.99,SSE,155,9.0,11.0,-999,-99.99,,,-99.99,,2013-04-29 07:52:00,
2013-04-29 04:03:00,73.0,-99.9,29.99,South,174,8.0,13.0,-999,-99.99,,,-99.99,,2013-04-29 08:03:00,
2013-04-29 04:11:00,73.0,-99.9,29.99,South,178,9.0,12.0,-999,-99.99,,,-99.99,,2013-04-29 08:11:00,
2013-04-29 04:22:00,73.0,-99.9,29.99,South,172,6.0,9.0,-999,-99.99,,,-99.99,,2013-04-29 08:22:00,
2013-04-29 04:32:00,73.0,-99.9,29.99,SSE,161,9.0,13.0,-999,-99.99,,,-99.99,,2013-04-29 08:32:00,
2013-04-29 04:42:00,73.0,-99.9,29.99,SE,146,7.0,10.0,-999,-99.99,,,-99.99,,2013-04-29 08:42:00,
2013-04-29 04:52:00,73.0,-99.9,29.99,SSE,147,6.0,8.0,-999,-99.99,,,-99.99,,2013-04-29 08:52:00,
2013-04-29 05:02:00,73.0,-99.9,29.99,SSE,157,7.0,10.0,-999,-99.99,,,-99.99,,2013-04-29 09:02:00,
2013-04-29 05:12:00,73.0,-99.9,29.99,SSE,159,6.0,9.0,-999,-99.99,,,-99.99,,2013-04-29 09:12:00,
2013-04-29 05:22:00,73.0,-99.9,29.98,SSE,152,10.0,13.0,-999,-99.99,,,-99.99,,2013-04-29 09:22:00,
2013-04-29 05:33:00,72.0,-99.9,29.98,SE,140,8.0,13.0,-999,-99.99,,,-99.99,,2013-04-29 09:33:00,
2013-04-29 05:42:00,72.0,-99.9,29.99,SSE,147,8.0,12.0,-999,-99.99,,,-99.99,,2013-04-29 09:42:00,
2013-04-29 05:53:00,71.0,-99.9,29.98,SSE,158,6.0,9.0,-999,-99.99,,,-99.99,,2013-04-29 09:53:00,
2013-04-29 06:03:00,72.0,-99.9,29.99,South,172,7.0,8.0,-999,-99.99,,,-99.99,,2013-04-29 10:03:00,
2013-04-29 06:12:00,72.0,-99.9,29.99,SSE,160,8.0,11.0,-999,-99.99,,,-99.99,,2013-04-29 10:12:00,
2013-04-29 06:23:00,72.0,-99.9,29.98,SSE,151,15.0,20.0,-999,-99.99,,,-99.99,,2013-04-29 10:23:00,
2013-04-29 06:32:00,72.0,-99.9,29.98,SSE,156,11.0,15.0,-999,-99.99,,,-99.99,,2013-04-29 10:32:00,
2013-04-29 06:42:00,72.0,-99.9,29.98,SSE,158,12.0,17.0,-999,-99.99,,,-99.99,,2013-04-29 10:42:00,
2013-04-29 06:52:00,72.0,-99.9,29.98,SE,140,10.0,14.0,-999,-99.99,,,-99.99,,2013-04-29 10:52:00,
2013-04-29 07:03:00,72.0,-99.9,29.98,SE,144,7.0,11.0,-999,-99.99,,,-99.99,,2013-04-29 11:03:00,
2013-04-29 07:12:00,72.0,-99.9,29.98,SE,141,6.0,9.0,-999,-99.99,,,-99.99,,2013-04-29 11:12:00,
2013-04-29 07:22:00,73.0,-99.9,29.98,SE,145,8.0,11.0,-999,-99.99,,,-99.99,,2013-04-29 11:22:00,
2013-04-29 07:32:00,73.0,-99.9,29.98,SE,145,8.0,11.0,-999,-99.99,,,-99.99,,2013-04-29 11:32:00,
2013-04-29 07:42:00,73.0,-99.9,29.99,SSE,153,7.0,9.0,-999,-99.99,,,-99.99,,2013-04-29 11:42:00,
2013-04-29 07:52:00,73.0,-99.9,30.00,SSE,162,8.0,11.0,-999,-99.99,,,-99.99,,2013-04-29 11:52:00,
2013-04-29 08:01:00,73.0,-99.9,30.00,SSE,155,6.0,10.0,-999,-99.99,,,-99.99,,2013-04-29 12:01:00,
2013-04-29 08:12:00,73.0,-99.9,30.01,SSE,157,6.0,11.0,-999,-99.99,,,-99.99,,2013-04-29 12:12:00,
2013-04-29 08:22:00,73.0,-99.9,30.01,SSE,151,5.0,10.0,-999,-99.99,,,-99.99,,2013-04-29 12:22:00,
2013-04-29 08:32:00,73.0,-99.9,30.00,SE,144,7.0,11.0,-999,-99.99,,,-99.99,,2013-04-29 12:32:00,
2013-04-29 08:42:00,73.0,-99.9,30.01,SE,142,6.0,10.0,-999,-99.99,,,-99.99,,2013-04-29 12:42:00,
2013-04-29 08:52:00,73.0,-99.9,30.01,SE,137,7.0,11.0,-999,-99.99,,,-99.99,,2013-04-29 12:52:00,
2013-04-29 09:01:00,73.0,-99.9,30.01,SSE,147,7.0,9.0,-999,-99.99,,,-99.99,,2013-04-29 13:01:00,
2013-04-29 09:11:00,73.0,-99.9,30.01,SE,138,7.0,11.0,-999,-99.99,,,-99.99,,2013-04-29 13:11:00,
2013-04-29 09:22:00,73.0,-99.9,30.00,SE,143,7.0,11.0,-999,-99.99,,,-99.99,,2013-04-29 13:22:00,
2013-04-29 09:32:00,74.0,-99.9,30.01,SE,145,8.0,13.0,-999,-99.99,,,-99.99,,2013-04-29 13:32:00,
2013-04-29 09:42:00,74.0,-99.9,30.01,SSE,157,9.0,12.0,-999,-99.99,,,-99.99,,2013-04-29 13:42:00,
2013-04-29 09:52:00,75.0,-99.9,30.00,SSE,155,10.0,13.0,-999,-99.99,,,-99.99,,2013-04-29 13:52:00,
2013-04-29 10:02:00,75.0,-99.9,30.01,SSE,156,11.0,17.0,-999,-99.99,,,-99.99,,2013-04-29 14:02:00,
2013-04-29 10:12:00,75.0,-99.9,30.01,SSE,151,9.0,12.0,-999,-99.99,,,-99.99,,2013-04-29 14:12:00,
2013-04-29 10:22:00,76.0,-99.9,30.01,SSE,162,9.0,12.0,-999,-99.99,,,-99.99,,2013-04-29 14:22:00,
2013-04-29 10:32:00,76.0,-99.9,30.01,SSE,164,13.0,16.0,-999,-99.99,,,-99.99,,2013-04-29 14:32:00,
2013-04-29 10:42:00,76.0,-99.9,30.01,SSE,161,11.0,17.0,-999,-99.99,,,-99.99,,2013-04-29 14:42:00,
2013-04-29 10:52:00,76.0,-99.9,30.01,SSE,158,12.0,15.0,-999,-99.99,,,-99.99,,2013-04-29 14:52:00,
2013-04-29 11:01:00,76.0,-99.9,30.01,SSE,153,13.0,18.0,-999,-99.99,,,-99.99,,2013-04-29 15:01:00,
2013-04-29 11:12:00,77.0,-99.9,30.01,SSE,157,12.0,16.0,-999,-99.99,,,-99.99,,2013-04-29 15:12:00,
2013-04-29 11:22:00,77.0,-99.9,30.01,SSE,150,13.0,18.0,-999,-99.99,,,-99.99,,2013-04-29 15:22:00,
2013-04-29 11:33:00,77.0,-99.9,30.00,South,180,13.0,17.0,-999,-99.99,,,-99.99,,2013-04-29 15:33:00,
2013-04-29 11:43:00,77.0,-99.9,30.01,South,176,13.0,15.0,-999,-99.99,,,-99.99,,2013-04-29 15:43:00,
2013-04-29 11:53:00,78.0,-99.9,30.01,South,179,11.0,15.0,-999,-99.99,,,-99.99,,2013-04-29 15:53:00,
2013-04-29 12:03:00,78.0,-99.9,30.01,South,180,10.0,14.0,-999,-99.99,,,-99.99,,2013-04-29 16:03:00,
2013-04-29 12:13:00,77.0,-99.9,30.01,SSW,193,13.0,15.0,-999,-99.99,,,-99.99,,2013-04-29 16:13:00,
2013-04-29 12:23:00,77.0,-99.9,30.02,SSW,198,15.0,16.0,-999,-99.99,,,-99.99,,2013-04-29 16:23:00,
2013-04-29 12:33:00,78.0,-99.9,30.02,South,189,11.0,14.0,-999,-99.99,,,-99.99,,2013-04-29 16:33:00,
2013-04-29 12:42:00,78.0,-99.9,30.02,SSW,202,9.0,13.0,-999,-99.99,,,-99.99,,2013-04-29 16:42:00,
2013-04-29 12:53:00,78.0,-99.9,30.02,SSW,193,13.0,15.0,-999,-99.99,,,-99.99,,2013-04-29 16:53:00,
2013-04-29 13:02:00,78.0,-99.9,30.01,SSW,199,12.0,16.0,-999,-99.99,,,-99.99,,2013-04-29 17:02:00,
2013-04-29 13:12:00,78.0,-99.9,30.01,SSW,198,11.0,13.0,-999,-99.99,,,-99.99,,2013-04-29 17:12:00,
2013-04-29 13:23:00,78.0,-99.9,30.01,SSW,208,12.0,13.0,-999,-99.99,,,-99.99,,2013-04-29 17:23:00,
2013-04-29 13:32:00,78.0,-99.9,30.01,SW,220,11.0,13.0,-999,-99.99,,,-99.99,,2013-04-29 17:32:00,
2013-04-29 13:42:00,78.0,-99.9,30.01,SW,218,11.0,13.0,-999,-99.99,,,-99.99,,2013-04-29 17:42:00,
2013-04-29 13:52:00,77.0,-99.9,30.01,SW,227,14.0,15.0,-999,-99.99,,,-99.99,,2013-04-29 17:52:00,
2013-04-29 14:01:00,77.0,-99.9,30.00,SW,225,16.0,17.0,-999,-99.99,,,-99.99,,2013-04-29 18:01:00,
2013-04-29 14:13:00,77.0,-99.9,30.00,SW,218,16.0,20.0,-999,-99.99,,,-99.99,,2013-04-29 18:13:00,
2013-04-29 14:22:00,77.0,-99.9,29.99,SW,216,16.0,19.0,-999,-99.99,,,-99.99,,2013-04-29 18:22:00,
2013-04-29 14:32:00,77.0,-99.9,29.99,SW,214,16.0,17.0,-999,-99.99,,,-99.99,,2013-04-29 18:32:00,
2013-04-29 14:42:00,76.0,-99.9,29.99,SW,219,16.0,17.0,-999,-99.99,,,-99.99,,2013-04-29 18:42:00,
2013-04-29 14:52:00,76.0,-99.9,29.99,SW,216,14.0,16.0,-999,-99.99,,,-99.99,,2013-04-29 18:52:00,
2013-04-29 15:01:00,76.0,-99.9,29.98,SW,218,13.0,15.0,-999,-99.99,,,-99.99,,2013-04-29 19:01:00,
2013-04-29 15:12:00,76.0,-99.9,29.98,SW,214,14.0,15.0,-999,-99.99,,,-99.99,,2013-04-29 19:12:00,
2013-04-29 15:22:00,76.0,-99.9,29.98,SSW,206,15.0,17.0,-999,-99.99,,,-99.99,,2013-04-29 19:22:00,
2013-04-29 15:32:00,76.0,-99.9,29.97,SSW,206,14.0,16.0,-999,-99.99,,,-99.99,,2013-04-29 19:32:00,
2013-04-29 15:42:00,76.0,-99.9,29.96,SSW,200,14.0,15.0,-999,-99.99,,,-99.99,,2013-04-29 19:42:00,
2013-04-29 15:52:00,77.0,-99.9,29.95,SSW,205,16.0,17.0,-999,-99.99,,,-99.99,,2013-04-29 19:52:00,
2013-04-29 16:02:00,77.0,-99.9,29.94,SSW,202,17.0,20.0,-999,-99.99,,,-99.99,,2013-04-29 20:02:00,
2013-04-29 16:12:00,77.0,-99.9,29.94,SSW,204,19.0,21.0,-999,-99.99,,,-99.99,,2013-04-29 20:12:00,
2013-04-29 16:22:00,76.0,-99.9,29.94,SW,214,18.0,21.0,-999,-99.99,,,-99.99,,2013-04-29 20:22:00,
2013-04-29 16:32:00,77.0,-99.9,29.94,SSW,201,16.0,18.0,-999,-99.99,,,-99.99,,2013-04-29 20:32:00,
2013-04-29 16:43:00,76.0,-99.9,29.93,SSW,200,18.0,19.0,-999,-99.99,,,-99.99,,2013-04-29 20:43:00,
2013-04-29 16:52:00,77.0,-99.9,29.92,SSW,203,19.0,21.0,-999,-99.99,,,-99.99,,2013-04-29 20:52:00,
2013-04-29 17:02:00,77.0,-99.9,29.93,SSW,207,16.0,19.0,-999,-99.99,,,-99.99,,2013-04-29 21:02:00,
2013-04-29 17:12:00,76.0,-99.9,29.92,SSW,203,16.0,19.0,-999,-99.99,,,-99.99,,2013-04-29 21:12:00,
2013-04-29 17:22:00,77.0,-99.9,29.92,SSW,211,14.0,18.0,-999,-99.99,,,-99.99,,2013-04-29 21:22:00,
2013-04-29 17:33:00,77.0,-99.9,29.92,SSW,208,15.0,17.0,-999,-99.99,,,-99.99,,2013-04-29 21:33:00,
2013-04-29 17:43:00,77.0,-99.9,29.91,SSW,201,13.0,16.0,-999,-99.99,,,-99.99,,2013-04-29 21:43:00,
2013-04-29 17:53:00,77.0,-99.9,29.91,SSW,206,15.0,17.0,-999,-99.99,,,-99.99,,2013-04-29 21:53:00,
2013-04-29 18:03:00,77.0,-99.9,29.91,SW,219,15.0,17.0,-999,-99.99,,,-99.99,,2013-04-29 22:03:00,
2013-04-29 18:13:00,77.0,-99.9,29.92,SW,215,13.0,16.0,-999,-99.99,,,-99.99,,2013-04-29 22:13:00,
2013-04-29 18:23:00,76.0,-99.9,29.92,SW,217,11.0,12.0,-999,-99.99,,,-99.99,,2013-04-29 22:23:00,
2013-04-29 18:33:00,77.0,-99.9,29.93,SW,223,11.0,11.0,-999,-99.99,,,-99.99,,2013-04-29 22:33:00,
2013-04-29 18:42:00,76.0,-99.9,29.93,SW,224,11.0,12.0,-999,-99.99,,,-99.99,,2013-04-29 22:42:00,
2013-04-29 18:53:00,76.0,-99.9,29.93,SW,226,10.0,11.0,-999,-99.99,,,-99.99,,2013-04-29 22:53:00,
2013-04-29 19:02:00,76.0,-99.9,29.93,SW,227,10.0,11.0,-999,-99.99,,,-99.99,,2013-04-29 23:02:00,
2013-04-29 19:12:00,76.0,-99.9,29.93,SW,229,9.0,10.0,-999,-99.99,,,-99.99,,2013-04-29 23:12:00,
2013-04-29 19:22:00,76.0,-99.9,29.93,SW,224,10.0,11.0,-999,-99.99,,,-99.99,,2013-04-29 23:22:00,
2013-04-29 19:32:00,76.0,-99.9,29.94,SW,225,10.0,11.0,-999,-99.99,,,-99.99,,2013-04-29 23:32:00,
2013-04-29 19:42:00,76.0,-99.9,29.94,SW,222,11.0,12.0,-999,-99.99,,,-99.99,,2013-04-29 23:42:00,
2013-04-29 19:53:00,76.0,-99.9,29.95,SW,231,12.0,14.0,-999,-99.99,,,-99.99,,2013-04-29 23:53:00,
2013-04-29 20:01:00,76.0,-99.9,29.95,SW,227,13.0,14.0,-999,-99.99,,,-99.99,,2013-04-30 00:01:00,
2013-04-29 20:11:00,76.0,-99.9,29.96,SW,227,12.0,14.0,-999,-99.99,,,-99.99,,2013-04-30 00:11:00,
2013-04-29 20:22:00,76.0,-99.9,29.95,SW,218,13.0,15.0,-999,-99.99,,,-99.99,,2013-04-30 00:22:00,
2013-04-29 20:32:00,76.0,-99.9,29.95,SW,215,10.0,11.0,-999,-99.99,,,-99.99,,2013-04-30 00:32:00,
2013-04-29 20:42:00,76.0,-99.9,29.95,SW,222,9.0,11.0,-999,-99.99,,,-99.99,,2013-04-30 00:42:00,
2013-04-29 20:52:00,76.0,-99.9,29.95,SW,220,10.0,12.0,-999,-99.99,,,-99.99,,2013-04-30 00:52:00,
2013-04-29 21:02:00,76.0,-99.9,29.95,SW,217,9.0,12.0,-999,-99.99,,,-99.99,,2013-04-30 01:02:00,
2013-04-29 21:12:00,76.0,-99.9,29.95,SW,217,11.0,12.0,-999,-99.99,,,-99.99,,2013-04-30 01:12:00,
2013-04-29 21:22:00,76.0,-99.9,29.95,SW,224,9.0,12.0,-999,-99.99,,,-99.99,,2013-04-30 01:22:00,
2013-04-29 21:32:00,76.0,-99.9,29.94,SW,218,11.0,11.0,-999,-99.99,,,-99.99,,2013-04-30 01:32:00,
2013-04-29 21:42:00,76.0,-99.9,29.94,SW,220,9.0,11.0,-999,-99.99,,,-99.99,,2013-04-30 01:42:00,
2013-04-29 21:52:00,76.0,-99.9,29.94,SW,223,8.0,9.0,-999,-99.99,,,-99.99,,2013-04-30 01:52:00,
2013-04-29 22:01:00,76.0,-99.9,29.94,SW,225,8.0,9.0,-999,-99.99,,,-99.99,,2013-04-30 02:01:00,
2013-04-29 22:11:00,76.0,-99.9,29.94,SW,216,7.0,8.0,-999,-99.99,,,-99.99,,2013-04-30 02:11:00,
2013-04-29 22:21:00,76.0,-99.9,29.94,SSW,210,7.0,8.0,-999,-99.99,,,-99.99,,2013-04-30 02:21:00,
2013-04-29 22:32:00,76.0,-99.9,29.94,SSW,195,5.0,6.0,-999,-99.99,,,-99.99,,2013-04-30 02:32:00,
2013-04-29 22:42:00,76.0,-99.9,29.94,SSW,198,5.0,6.0,-999,-99.99,,,-99.99,,2013-04-30 02:42:00,
2013-04-29 22:52:00,76.0,-99.9,29.95,SW,217,6.0,7.0,-999,-99.99,,,-99.99,,2013-04-30 02:52:00,
2013-04-29 23:01:00,76.0,-99.9,29.95,SW,224,6.0,8.0,-999,-99.99,,,-99.99,,2013-04-30 03:01:00,
2013-04-29 23:11:00,76.0,-99.9,29.96,SSW,210,9.0,9.0,-999,-99.99,,,-99.99,,2013-04-30 03:11:00,
2013-04-29 23:22:00,76.0,-99.9,29.96,SW,220,9.0,10.0,-999,-99.99,,,-99.99,,2013-04-30 03:22:00,
2013-04-29 23:33:00,76.0,-99.9,29.96,SSW,203,7.0,9.0,-999,-99.99,,,-99.99,,2013-04-30 03:33:00,
2013-04-29 23:43:00,76.0,-99.9,29.96,SW,220,6.0,8.0,-999,-99.99,,,-99.99,,2013-04-30 03:43:00,
2013-04-29 23:53:00,76.0,-99.9,29.96,SW,229,8.0,9.0,-999,-99.99,,,-99.99,,2013-04-30 03:53:00,